createdAt,value
2019-05-07T00:01:07.912Z,65.77
2019-05-07T00:06:09.670Z,65.53
2019-05-07T00:11:12.617Z,65.92
2019-05-07T00:16:14.394Z,65.90
2019-05-07T00:21:16.236Z,65.87
2019-05-07T00:26:17.671Z,66.16
2019-05-07T00:31:19.227Z,66.73
2019-05-07T00:36:23.081Z,66.98
2019-05-07T00:41:24.927Z,67.29
2019-05-07T00:46:26.352Z,66.99
2019-05-07T00:51:28.240Z,67.56
2019-05-07T00:56:30.038Z,67.65
2019-05-07T01:01:32.357Z,68.57
2019-05-07T01:06:33.950Z,69.26
2019-05-07T01:11:35.715Z,69.53
2019-05-07T01:16:37.091Z,69.52
2019-05-07T01:21:38.643Z,69.20
2019-05-07T01:26:42.403Z,68.58
2019-05-07T01:31:43.580Z,68.70
2019-05-07T01:36:45.110Z,68.89
2019-05-07T01:41:46.635Z,69.27
2019-05-07T01:46:48.168Z,69.06
2019-05-07T01:51:49.673Z,69.39
2019-05-07T01:56:52.193Z,69.86
2019-05-07T02:01:53.836Z,69.68
2019-05-07T02:06:55.386Z,70.17
2019-05-07T02:11:57.247Z,70.39
2019-05-07T02:16:58.809Z,69.86
2019-05-07T02:22:02.583Z,69.62
2019-05-07T02:27:03.750Z,70.42
2019-05-07T02:32:05.617Z,70.41
2019-05-07T02:37:07.023Z,71.72
2019-05-07T02:42:08.549Z,70.10
2019-05-07T02:47:12.729Z,70.29
2019-05-07T02:52:13.893Z,71.12
2019-05-07T02:57:16.954Z,70.90
2019-05-07T03:02:19.017Z,70.11
2019-05-07T03:07:23.900Z,69.62
2019-05-07T03:12:24.756Z,69.88
2019-05-07T03:17:26.185Z,69.93
2019-05-07T03:22:27.659Z,70.95
2019-05-07T03:27:29.413Z,71.32
2019-05-07T03:32:36.531Z,70.89
2019-05-07T03:37:36.315Z,71.04
2019-05-07T03:42:38.136Z,70.80
2019-05-07T03:47:39.646Z,70.49
2019-05-07T03:52:42.841Z,70.62
2019-05-07T03:57:44.980Z,71.82
2019-05-07T04:02:46.390Z,73.27
2019-05-07T04:07:48.192Z,73.80
2019-05-07T04:12:49.776Z,73.62
2019-05-07T04:17:53.703Z,72.69
2019-05-07T04:22:55.576Z,73.10
2019-05-07T04:27:57.078Z,72.54
2019-05-07T04:32:58.597Z,72.74
2019-05-07T04:38:03.422Z,72.28
2019-05-07T04:43:03.807Z,71.83
2019-05-07T04:48:05.291Z,71.49
2019-05-07T04:53:06.837Z,71.49
2019-05-07T04:58:09.213Z,71.72
2019-05-07T05:03:12.937Z,71.58
2019-05-07T05:08:14.536Z,71.58
2019-05-07T05:13:16.157Z,71.70
2019-05-07T05:18:18.212Z,72.43
2019-05-07T05:23:19.916Z,72.51
2019-05-07T05:28:21.983Z,71.28
2019-05-07T05:33:24.284Z,68.04
2019-05-07T05:38:26.127Z,66.90
2019-05-07T05:43:27.662Z,66.13
2019-05-07T05:48:29.164Z,66.14
2019-05-07T05:53:32.716Z,65.25
2019-05-07T05:58:34.236Z,64.03
2019-05-07T06:03:35.728Z,64.17
2019-05-07T06:08:37.251Z,67.49
2019-05-07T06:13:39.214Z,66.92
2019-05-07T06:18:41.975Z,65.92
2019-05-07T06:23:43.573Z,64.15
2019-05-07T06:28:45.178Z,61.69
2019-05-07T06:33:47.376Z,59.72
2019-05-07T06:38:49.757Z,58.76
2019-05-07T06:43:52.158Z,58.15
2019-05-07T06:48:54.270Z,57.82
2019-05-07T06:53:56.904Z,57.49
2019-05-07T06:58:58.691Z,57.88
2019-05-07T07:04:02.628Z,57.89
2019-05-07T07:09:07.948Z,57.66
2019-05-07T07:14:09.342Z,56.93
2019-05-07T07:19:12.422Z,56.40
2019-05-07T07:24:14.127Z,55.69
2019-05-07T07:29:15.632Z,56.05
2019-05-07T07:34:17.481Z,55.37
2019-05-07T07:39:19.303Z,54.96
2019-05-07T07:44:22.339Z,54.36
2019-05-07T07:49:24.248Z,54.57
2019-05-07T07:54:26.307Z,53.79
2019-05-07T07:59:27.878Z,53.93
2019-05-07T08:04:33.374Z,53.25
2019-05-07T08:09:34.912Z,52.98
2019-05-07T08:14:36.447Z,52.56
2019-05-07T08:19:38.337Z,52.38
2019-05-07T08:24:42.395Z,52.91
2019-05-07T08:29:43.789Z,51.48
2019-05-07T08:34:45.311Z,51.72
2019-05-07T08:39:46.806Z,52.22
2019-05-07T08:44:48.349Z,51.69
2019-05-07T08:49:52.314Z,52.22
2019-05-07T08:54:53.935Z,51.46
2019-05-07T09:00:00.247Z,50.20
2019-05-07T09:04:59.131Z,48.09
2019-05-07T09:10:02.465Z,45.85
2019-05-07T09:15:04.386Z,44.86
2019-05-07T09:20:09.121Z,45.25
2019-05-07T09:25:09.872Z,43.04
2019-05-07T09:30:12.787Z,41.71
2019-05-07T09:35:14.679Z,39.29
2019-05-07T09:40:16.196Z,40.54
2019-05-07T09:45:17.698Z,41.52
2019-05-07T09:50:19.350Z,42.17
2019-05-07T09:55:23.135Z,41.28
2019-05-07T10:00:24.333Z,41.47
2019-05-07T10:05:26.625Z,41.67
2019-05-07T10:10:28.206Z,41.03
2019-05-07T10:15:30.044Z,41.70
2019-05-07T10:20:32.740Z,41.01
2019-05-07T10:25:34.811Z,39.57
2019-05-07T10:30:37.939Z,39.23
2019-05-07T10:35:41.009Z,39.02
2019-05-07T10:40:43.751Z,39.60
2019-05-07T10:45:45.364Z,38.63
2019-05-07T10:50:46.900Z,37.73
2019-05-07T10:55:48.397Z,37.64
2019-05-07T11:00:51.972Z,38.80
2019-05-07T11:05:53.448Z,37.61
2019-05-07T11:10:54.950Z,38.16
2019-05-07T11:15:56.884Z,38.08
2019-05-07T11:20:58.553Z,38.01
2019-05-07T11:26:00.025Z,39.73
2019-05-07T11:31:02.292Z,40.40
2019-05-07T11:36:04.246Z,40.06
2019-05-07T11:41:05.916Z,40.16
2019-05-07T11:46:07.710Z,39.97
2019-05-07T11:51:09.688Z,43.63
2019-05-07T11:56:11.795Z,45.72
2019-05-07T12:01:13.784Z,47.59
2019-05-07T12:06:15.268Z,48.00
2019-05-07T12:11:17.155Z,48.43
2019-05-07T12:16:18.680Z,49.32
2019-05-07T12:21:23.627Z,46.13
2019-05-07T12:26:24.401Z,46.21
2019-05-07T12:31:26.108Z,44.50
2019-05-07T12:36:27.657Z,44.54
2019-05-07T12:41:29.506Z,45.40
2019-05-07T12:46:33.369Z,44.10
2019-05-07T12:51:37.636Z,43.83
2019-05-07T12:56:39.059Z,41.40
2019-05-07T13:01:42.196Z,42.38
2019-05-07T13:06:44.277Z,41.00
2019-05-07T13:11:45.791Z,42.13
2019-05-07T13:16:47.731Z,41.38
2019-05-07T13:21:50.073Z,41.08
2019-05-07T13:26:52.189Z,40.83
2019-05-07T13:31:54.471Z,39.87
2019-05-07T13:36:56.338Z,40.41
2019-05-07T13:41:57.881Z,39.48
2019-05-07T13:47:02.132Z,39.68
2019-05-07T13:52:03.939Z,39.19
2019-05-07T13:57:05.489Z,40.07
2019-05-07T14:02:07.841Z,40.47
2019-05-07T14:07:09.499Z,40.70
2019-05-07T14:12:12.331Z,40.98
2019-05-07T14:17:14.185Z,40.75
2019-05-07T14:22:19.150Z,40.86
2019-05-07T14:27:21.049Z,41.72
2019-05-07T14:32:23.191Z,41.63
2019-05-07T14:37:24.765Z,41.62
2019-05-07T14:42:27.227Z,42.31
2019-05-07T14:47:28.889Z,42.27
2019-05-07T14:52:33.798Z,40.97
2019-05-07T14:57:34.110Z,40.79
2019-05-07T15:02:36.753Z,39.51
2019-05-07T15:07:38.568Z,37.30
2019-05-07T15:12:40.138Z,38.24
2019-05-07T15:17:42.075Z,39.39
2019-05-07T15:22:49.592Z,39.53
2019-05-07T15:27:47.568Z,39.75
2019-05-07T15:32:49.415Z,39.20
2019-05-07T15:37:51.803Z,40.78
2019-05-07T15:42:53.433Z,41.58
2019-05-07T15:47:54.747Z,42.88
2019-05-07T15:52:58.711Z,43.53
2019-05-07T15:58:02.659Z,40.66
2019-05-07T16:03:04.701Z,39.34
2019-05-07T16:08:08.579Z,39.45
2019-05-07T16:13:13.731Z,41.46
2019-05-07T16:18:15.468Z,40.42
2019-05-07T16:23:18.131Z,39.65
2019-05-07T16:28:21.795Z,38.86
2019-05-07T16:33:23.841Z,37.07
2019-05-07T16:38:26.076Z,35.41
2019-05-07T16:43:27.622Z,35.29
2019-05-07T16:48:29.219Z,35.83
2019-05-07T16:53:33.070Z,38.30
2019-05-07T16:58:35.059Z,39.02
2019-05-07T17:03:36.792Z,39.80
2019-05-07T17:08:38.694Z,39.75
2019-05-07T17:13:42.277Z,40.41
2019-05-07T17:18:44.526Z,41.62
2019-05-07T17:23:46.748Z,41.79
2019-05-07T17:28:48.542Z,40.84
2019-05-07T17:33:51.652Z,40.85
2019-05-07T17:38:53.552Z,40.42
2019-05-07T17:43:54.907Z,41.50
2019-05-07T17:48:56.419Z,40.49
2019-05-07T17:54:00.272Z,40.02
2019-05-07T17:59:02.901Z,42.04
2019-05-07T18:04:04.662Z,43.65
2019-05-07T18:09:06.840Z,45.14
2019-05-07T18:14:08.717Z,44.82
2019-05-07T18:19:10.246Z,44.84
2019-05-07T18:24:16.410Z,44.68
2019-05-07T18:29:15.705Z,44.61
2019-05-07T18:34:17.906Z,44.90
2019-05-07T18:39:20.525Z,45.38
2019-05-07T18:44:22.563Z,45.37
2019-05-07T18:49:24.240Z,45.58
2019-05-07T18:54:30.897Z,45.70
2019-05-07T18:59:29.361Z,46.13
2019-05-07T19:04:32.797Z,46.22
2019-05-07T19:09:35.825Z,47.08
2019-05-07T19:14:37.354Z,47.43
2019-05-07T19:19:39.224Z,47.79
2019-05-07T19:24:47.115Z,48.03
2019-05-07T19:29:45.845Z,48.31
2019-05-07T19:34:47.729Z,48.38
2019-05-07T19:39:49.206Z,48.84
2019-05-07T19:44:51.872Z,48.88
2019-05-07T19:49:53.916Z,49.43
2019-05-07T19:55:00.691Z,50.08
2019-05-07T19:59:59.083Z,50.31
2019-05-07T20:05:03.311Z,50.52
2019-05-07T20:10:04.116Z,50.77
2019-05-07T20:15:05.984Z,51.21
2019-05-07T20:20:07.481Z,51.01
2019-05-07T20:25:18.115Z,50.96
2019-05-07T20:30:13.051Z,51.04
2019-05-07T20:35:15.339Z,51.35
2019-05-07T20:40:16.873Z,51.57
2019-05-07T20:45:18.494Z,51.94
2019-05-07T20:50:22.242Z,52.23
2019-05-07T20:55:30.489Z,52.46
2019-05-07T21:00:27.254Z,52.67
2019-05-07T21:05:29.026Z,52.80
2019-05-07T21:10:32.827Z,52.67
2019-05-07T21:15:35.129Z,52.50
2019-05-07T21:20:36.598Z,52.48
2019-05-07T21:25:45.548Z,52.50
2019-05-07T21:30:42.804Z,52.64
2019-05-07T21:35:44.427Z,52.70
2019-05-07T21:40:46.302Z,52.85
2019-05-07T21:45:48.357Z,52.98
2019-05-07T21:50:51.965Z,53.05
2019-05-07T21:56:01.830Z,53.27
2019-05-07T22:00:58.461Z,53.33
2019-05-07T22:06:02.471Z,53.47
2019-05-07T22:11:04.690Z,53.67
2019-05-07T22:16:07.225Z,53.83
2019-05-07T22:21:08.712Z,54.02
2019-05-07T22:26:20.127Z,54.26
2019-05-07T22:31:13.909Z,54.11
2019-05-07T22:36:15.428Z,54.14
2019-05-07T22:41:17.181Z,54.18
2019-05-07T22:46:18.608Z,54.28
2019-05-07T22:51:20.082Z,54.37
2019-05-07T22:56:34.253Z,54.59
2019-05-07T23:01:25.080Z,54.69
2019-05-07T23:06:27.034Z,54.81
2019-05-07T23:11:28.441Z,54.80
2019-05-07T23:16:32.407Z,54.75
2019-05-07T23:21:33.628Z,54.84
2019-05-07T23:26:47.289Z,54.89
2019-05-07T23:31:38.812Z,55.00
2019-05-07T23:36:42.100Z,54.81
2019-05-07T23:41:43.659Z,54.89
2019-05-07T23:46:45.234Z,55.03
2019-05-07T23:51:46.782Z,55.23
2019-05-07T23:57:04.473Z,55.18
